createdAt,value
2019-03-01T00:03:07.120Z,9.83
2019-03-01T00:08:14.549Z,9.86
2019-03-01T00:13:54.454Z,9.85
2019-03-01T00:19:34.234Z,9.76
2019-03-01T00:25:12.538Z,9.81
2019-03-01T00:30:45.266Z,9.81
2019-03-01T00:36:30.729Z,9.75
2019-03-01T00:42:00.242Z,9.92
2019-03-01T00:47:05.455Z,9.62
2019-03-01T00:52:10.452Z,9.74
2019-03-01T00:57:12.786Z,9.54
2019-03-01T01:02:14.839Z,9.65
2019-03-01T01:07:17.639Z,9.58
2019-03-01T01:12:19.688Z,9.63
2019-03-01T01:17:23.767Z,9.57
2019-03-01T01:22:25.857Z,9.44
2019-03-01T01:27:32.988Z,9.49
2019-03-01T01:32:40.480Z,9.46
2019-03-01T01:37:45.301Z,9.61
2019-03-01T01:42:47.383Z,9.36
2019-03-01T01:47:49.483Z,9.23
2019-03-01T01:52:51.544Z,8.86
2019-03-01T01:57:55.917Z,9.01
2019-03-01T02:02:59.296Z,8.87
2019-03-01T02:08:06.054Z,8.82
2019-03-01T02:13:08.229Z,9.13
2019-03-01T02:18:10.273Z,9.02
2019-03-01T02:23:15.184Z,8.81
2019-03-01T02:28:19.529Z,8.79
2019-03-01T02:33:26.773Z,8.59
2019-03-01T02:38:33.676Z,8.60
2019-03-01T02:43:35.934Z,8.55
2019-03-01T02:48:38.006Z,8.79
2019-03-01T02:53:40.243Z,8.34
2019-03-01T02:58:43.369Z,8.66
2019-03-01T03:03:46.351Z,8.58
2019-03-01T03:08:48.444Z,8.56
2019-03-01T03:13:51.733Z,8.52
2019-03-01T03:18:55.742Z,8.55
2019-03-01T03:23:59.176Z,8.04
2019-03-01T03:29:01.188Z,8.27
2019-03-01T03:34:13.502Z,7.85
2019-03-01T03:39:18.328Z,8.14
2019-03-01T03:44:20.654Z,8.19
2019-03-01T03:49:22.716Z,8.03
2019-03-01T03:54:24.874Z,8.36
2019-03-01T03:59:26.897Z,8.10
2019-03-01T04:04:29.148Z,7.95
2019-03-01T04:09:31.260Z,7.80
2019-03-01T04:14:33.425Z,7.85
2019-03-01T04:19:38.590Z,7.93
2019-03-01T04:24:42.526Z,8.08
2019-03-01T04:29:44.569Z,8.39
2019-03-01T04:34:48.067Z,7.85
2019-03-01T04:39:51.609Z,8.10
2019-03-01T04:44:57.674Z,8.21
2019-03-01T04:49:59.702Z,8.14
2019-03-01T04:55:04.062Z,8.23
2019-03-01T05:00:09.099Z,8.43
2019-03-01T05:05:14.654Z,8.05
2019-03-01T05:10:16.910Z,8.47
2019-03-01T05:15:22.697Z,8.28
2019-03-01T05:20:24.740Z,8.26
2019-03-01T05:25:29.495Z,8.31
2019-03-01T05:30:36.732Z,8.22
2019-03-01T05:35:38.926Z,8.16
2019-03-01T05:40:40.986Z,7.91
2019-03-01T05:45:48.525Z,8.24
2019-03-01T05:50:56.135Z,7.95
2019-03-01T05:55:58.200Z,7.96
2019-03-01T06:01:09.753Z,8.26
2019-03-01T06:06:15.382Z,8.02
2019-03-01T06:11:38.115Z,8.01
2019-03-01T06:17:07.927Z,7.76
2019-03-01T06:23:06.904Z,7.83
2019-03-01T06:28:50.641Z,8.49
2019-03-01T06:34:29.123Z,8.32
2019-03-01T06:40:38.061Z,8.11
2019-03-01T06:46:20.271Z,8.53
2019-03-01T06:51:33.670Z,8.31
2019-03-01T06:56:35.833Z,8.39
2019-03-01T07:01:43.903Z,7.99
2019-03-01T07:06:48.972Z,8.04
2019-03-01T07:11:53.252Z,8.06
2019-03-01T07:16:57.311Z,7.99
2019-03-01T07:22:00.920Z,8.18
2019-03-01T07:27:03.056Z,7.89
2019-03-01T07:32:05.160Z,7.95
2019-03-01T07:37:07.304Z,7.47
2019-03-01T07:42:10.589Z,7.88
2019-03-01T07:47:15.403Z,7.77
2019-03-01T07:52:17.499Z,7.61
2019-03-01T07:57:22.714Z,7.47
2019-03-01T08:02:24.862Z,7.19
2019-03-01T08:07:29.939Z,6.92
2019-03-01T08:12:33.076Z,7.42
2019-03-01T08:17:37.278Z,7.03
2019-03-01T08:22:48.082Z,7.18
2019-03-01T08:27:46.343Z,7.15
2019-03-01T08:32:49.013Z,7.38
2019-03-01T08:37:53.500Z,7.42
2019-03-01T08:42:55.389Z,7.14
2019-03-01T08:47:58.885Z,7.02
2019-03-01T08:53:06.224Z,7.63
2019-03-01T08:58:08.304Z,7.18
2019-03-01T09:03:23.310Z,7.37
2019-03-01T09:08:26.479Z,7.12
2019-03-01T09:13:28.983Z,7.38
2019-03-01T09:18:31.111Z,7.33
2019-03-01T09:23:36.276Z,7.42
2019-03-01T09:28:39.685Z,7.27
2019-03-01T09:33:42.336Z,7.23
2019-03-01T09:38:45.908Z,7.52
2019-03-01T09:43:48.002Z,7.51
2019-03-01T09:48:50.526Z,7.48
2019-03-01T09:53:52.651Z,7.47
2019-03-01T09:58:57.342Z,7.47
2019-03-01T10:04:02.427Z,7.62
2019-03-01T10:09:09.898Z,7.20
2019-03-01T10:14:12.151Z,7.73
2019-03-01T10:19:17.086Z,7.66
2019-03-01T10:24:19.293Z,8.00
2019-03-01T10:29:25.415Z,7.37
2019-03-01T10:34:27.804Z,7.75
2019-03-01T10:39:33.008Z,7.93
2019-03-01T10:44:35.326Z,7.61
2019-03-01T10:49:40.135Z,7.34
2019-03-01T10:54:42.155Z,8.03
2019-03-01T10:59:47.375Z,8.43
2019-03-01T11:04:51.739Z,8.02
2019-03-01T11:09:54.316Z,8.31
2019-03-01T11:14:59.610Z,8.75
2019-03-01T11:20:01.625Z,7.99
2019-03-01T11:25:06.458Z,7.80
2019-03-01T11:30:12.366Z,7.52
2019-03-01T11:35:15.861Z,7.89
2019-03-01T11:40:23.625Z,7.90
2019-03-01T11:45:28.069Z,8.65
2019-03-01T11:50:31.598Z,8.22
2019-03-01T11:55:36.808Z,8.02
2019-03-01T12:00:41.196Z,8.09
2019-03-01T12:05:43.574Z,8.13
2019-03-01T12:10:45.867Z,8.11
2019-03-01T12:15:51.276Z,8.03
2019-03-01T12:20:53.367Z,7.69
2019-03-01T12:25:55.409Z,7.87
2019-03-01T12:31:04.878Z,7.88
2019-03-01T12:36:07.057Z,8.04
2019-03-01T12:41:09.129Z,8.35
2019-03-01T12:46:12.641Z,8.62
2019-03-01T12:51:14.841Z,9.14
2019-03-01T12:56:17.235Z,8.17
2019-03-01T13:01:23.998Z,8.23
2019-03-01T13:06:27.389Z,8.50
2019-03-01T13:11:29.531Z,8.62
2019-03-01T13:16:33.977Z,8.57
2019-03-01T13:21:36.136Z,8.47
2019-03-01T13:26:40.815Z,7.98
2019-03-01T13:31:47.112Z,7.89
2019-03-01T13:36:48.355Z,8.12
2019-03-01T13:41:50.460Z,8.57
2019-03-01T13:46:55.346Z,8.50
2019-03-01T13:51:57.463Z,8.53
2019-03-01T13:57:03.924Z,8.29
2019-03-01T14:02:08.514Z,8.40
2019-03-01T14:07:10.716Z,8.37
2019-03-01T14:12:12.969Z,8.26
2019-03-01T14:17:15.281Z,8.59
2019-03-01T14:22:18.488Z,8.46
2019-03-01T14:27:20.775Z,8.55
2019-03-01T14:32:24.606Z,8.59
2019-03-01T14:37:27.079Z,8.70
2019-03-01T14:42:29.149Z,8.58
2019-03-01T14:47:32.728Z,8.22
2019-03-01T14:52:35.497Z,8.46
2019-03-01T14:57:43.068Z,8.44
2019-03-01T15:03:23.687Z,7.94
2019-03-01T15:08:26.061Z,8.18
2019-03-01T15:13:34.838Z,8.24
2019-03-01T15:18:36.102Z,7.94
2019-03-01T15:23:38.142Z,8.24
2019-03-01T15:28:44.681Z,8.21
2019-03-01T15:33:51.222Z,8.71
2019-03-01T15:38:55.568Z,8.23
2019-03-01T15:43:57.756Z,7.63
2019-03-01T15:48:59.821Z,7.84
2019-03-01T15:54:02.036Z,8.07
2019-03-01T15:59:06.007Z,8.21
2019-03-01T16:04:10.680Z,8.00
2019-03-01T16:09:21.740Z,7.78
2019-03-01T16:14:24.311Z,7.44
2019-03-01T16:19:26.866Z,7.56
2019-03-01T16:24:28.923Z,7.70
2019-03-01T16:29:33.622Z,7.38
2019-03-01T16:34:37.787Z,7.84
2019-03-01T16:39:41.475Z,7.48
2019-03-01T16:44:44.775Z,7.46
2019-03-01T16:49:47.566Z,7.57
2019-03-01T16:54:52.516Z,7.59
2019-03-01T16:59:56.046Z,7.52
2019-03-01T17:05:03.938Z,7.50
2019-03-01T17:10:15.070Z,7.36
2019-03-01T17:15:25.758Z,7.57
2019-03-01T17:20:28.219Z,7.20
2019-03-01T17:25:31.241Z,7.09
2019-03-01T17:30:36.491Z,7.22
2019-03-01T17:35:40.983Z,7.22
2019-03-01T17:40:43.912Z,7.08
2019-03-01T17:45:46.160Z,7.16
2019-03-01T17:50:50.299Z,7.25
2019-03-01T17:55:52.441Z,7.04
2019-03-01T18:01:02.755Z,7.16
2019-03-01T18:06:03.589Z,7.00
2019-03-01T18:11:08.795Z,7.17
2019-03-01T18:16:11.814Z,7.31
2019-03-01T18:21:14.559Z,7.04
2019-03-01T18:26:19.694Z,7.23
2019-03-01T18:31:23.984Z,7.05
2019-03-01T18:36:28.185Z,7.26
2019-03-01T18:41:30.263Z,7.10
2019-03-01T18:46:33.576Z,7.24
2019-03-01T18:51:43.387Z,7.16
2019-03-01T18:56:44.814Z,7.25
2019-03-01T19:01:48.636Z,7.04
2019-03-01T19:06:52.604Z,7.27
2019-03-01T19:11:54.920Z,7.14
2019-03-01T19:16:57.070Z,7.08
2019-03-01T19:22:02.562Z,7.21
2019-03-01T19:27:04.697Z,7.09
2019-03-01T19:32:06.738Z,6.96
2019-03-01T19:37:10.228Z,7.11
2019-03-01T19:42:13.570Z,6.87
2019-03-01T19:47:15.743Z,7.14
2019-03-01T19:52:20.177Z,7.07
2019-03-01T19:57:22.802Z,6.90
2019-03-01T20:02:30.983Z,7.14
2019-03-01T20:07:35.572Z,7.05
2019-03-01T20:12:40.605Z,6.92
2019-03-01T20:17:44.615Z,6.90
2019-03-01T20:22:50.555Z,7.25
2019-03-01T20:27:53.103Z,6.94
2019-03-01T20:32:55.218Z,6.85
2019-03-01T20:38:00.175Z,6.84
2019-03-01T20:43:06.704Z,7.02
2019-03-01T20:48:11.862Z,7.21
2019-03-01T20:53:14.347Z,7.17
2019-03-01T20:58:39.565Z,6.83
2019-03-01T21:03:43.744Z,6.76
2019-03-01T21:08:46.189Z,6.76
2019-03-01T21:13:51.398Z,6.56
2019-03-01T21:18:57.481Z,6.52
2019-03-01T21:23:59.745Z,6.57
2019-03-01T21:29:04.599Z,6.78
2019-03-01T21:34:09.919Z,6.72
2019-03-01T21:39:20.626Z,6.52
2019-03-01T21:44:24.692Z,6.64
2019-03-01T21:49:32.229Z,6.59
2019-03-01T21:54:34.352Z,6.56
2019-03-01T22:04:49.883Z,6.65
2019-03-01T22:10:02.584Z,6.81
2019-03-01T22:15:08.676Z,6.65
2019-03-01T22:20:10.840Z,6.73
2019-03-01T22:25:21.955Z,6.83
2019-03-01T22:30:25.703Z,6.68
2019-03-01T22:35:27.958Z,6.80
2019-03-01T22:40:31.277Z,6.75
2019-03-01T22:45:34.395Z,6.59
2019-03-01T22:50:39.478Z,6.56
2019-03-01T22:55:40.858Z,6.70
2019-03-01T23:01:17.299Z,6.70
2019-03-01T23:06:20.995Z,6.83
2019-03-01T23:11:32.404Z,6.54
2019-03-01T23:16:32.986Z,6.43
2019-03-01T23:21:35.891Z,6.27
2019-03-01T23:26:39.063Z,5.92
2019-03-01T23:31:41.066Z,5.81
2019-03-01T23:36:44.381Z,5.62
2019-03-01T23:41:50.433Z,5.71
2019-03-01T23:46:52.535Z,5.44
2019-03-01T23:51:56.549Z,5.39
2019-03-01T23:57:01.914Z,5.29
